Time;durP1;ratioP1;P1;durP2;ratioP2;P2;SDS_P1;SDS_P2;PMS_P1;PMS_P2;Temp;Humidity;BMP_temperature;BMP_pressure;BME280_temperature;BME280_humidity;BME280_pressure;Samples;Min_cycle;Max_cycle;Signal;HPM_P1;HPM_P2
2022/04/12 00:01:47;;;;;;;4.97;2.92;;;;;;;5.12;54.92;100379.47;4471738;31;33908;-81
2022/04/12 00:04:15;;;;;;;5.75;2.75;;;;;;;5.23;54.71;100376.75;4479052;31;34775;-82
2022/04/12 00:06:43;;;;;;;5.18;2.90;;;;;;;5.26;54.96;100372.31;4490734;31;34514;-82
2022/04/12 00:09:10;;;;;;;5.72;2.42;;;;;;;5.20;55.24;100377.62;4476132;31;32679;-82
2022/04/12 00:11:38;;;;;;;5.85;2.62;;;;;;;5.09;56.05;100375.16;4477734;31;32783;-82
2022/04/12 00:14:06;;;;;;;5.80;2.92;;;;;;;5.47;54.69;100376.41;4491878;31;34229;-81
2022/04/12 00:16:33;;;;;;;6.10;2.87;;;;;;;5.22;55.75;100378.50;4479001;31;33228;-82
2022/04/12 00:19:04;;;;;;;4.47;3.00;;;;;;;5.45;55.26;100374.69;4477538;31;32733;-81
2022/04/12 00:21:34;;;;;;;5.05;2.90;;;;;;;5.46;55.16;100364.22;4490997;31;34056;-81
2022/04/12 00:24:04;;;;;;;5.70;3.08;;;;;;;5.05;56.90;100368.22;4478971;31;32416;-81
2022/04/12 00:26:32;;;;;;;5.32;2.47;;;;;;;5.35;55.97;100366.09;4476953;31;34521;-82
2022/04/12 00:29:00;;;;;;;4.93;2.45;;;;;;;5.34;55.88;100367.00;4478531;31;32877;-81
2022/04/12 00:31:30;;;;;;;9.82;3.00;;;;;;;5.35;56.00;100360.84;4471508;31;33608;-81
2022/04/12 00:33:59;;;;;;;5.55;2.72;;;;;;;5.48;55.54;100351.94;4478603;31;33194;-82
2022/04/12 00:36:28;;;;;;;5.05;2.92;;;;;;;5.47;55.17;100354.59;4479334;31;34311;-81
2022/04/12 00:38:55;;;;;;;4.60;2.33;;;;;;;5.45;55.15;100356.34;4476534;31;34154;-82
2022/04/12 00:41:23;;;;;;;3.78;2.50;;;;;;;5.48;54.84;100358.94;4480598;31;33285;-82
2022/04/12 00:43:51;;;;;;;3.83;2.40;;;;;;;5.32;55.24;100353.94;4464801;31;32260;-82
2022/04/12 00:46:18;;;;;;;6.10;2.58;;;;;;;5.14;56.02;100351.53;4488698;31;33186;-82
2022/04/12 00:48:46;;;;;;;5.40;2.72;;;;;;;5.38;55.25;100356.44;4473730;31;33866;-81
2022/04/12 00:51:14;;;;;;;2.12;1.73;;;;;;;5.31;55.05;100349.56;4487026;31;34070;-81
2022/04/12 00:53:41;;;;;;;4.60;2.12;;;;;;;5.47;54.59;100349.37;4455804;32;33182;-81
2022/04/12 00:56:09;;;;;;;3.12;1.67;;;;;;;5.33;55.12;100345.19;4464231;31;33495;-82
2022/04/12 00:58:38;;;;;;;4.03;2.22;;;;;;;5.16;56.07;100348.91;4477464;31;33381;-81
2022/04/12 01:01:05;;;;;;;5.80;2.72;;;;;;;5.16;56.05;100351.50;4488815;31;34431;-82
2022/04/12 01:03:34;;;;;;;3.25;2.05;;;;;;;5.42;55.29;100359.03;4475994;31;32333;-82
2022/04/12 01:06:02;;;;;;;3.58;2.05;;;;;;;5.33;55.02;100355.66;4463654;31;34495;-81
2022/04/12 01:08:30;;;;;;;3.80;2.25;;;;;;;5.27;55.07;100354.84;4478322;32;34224;-83
2022/04/12 01:11:04;;;;;;;6.60;2.47;;;;;;;5.05;56.05;100354.28;4478621;31;34538;-82
2022/04/12 01:13:33;;;;;;;5.68;2.53;;;;;;;5.29;55.36;100355.72;4479913;31;33892;-82
2022/04/12 01:16:01;;;;;;;4.82;2.33;;;;;;;5.33;55.07;100352.16;4492996;31;33746;-81
2022/04/12 01:18:28;;;;;;;2.90;1.75;;;;;;;5.48;54.40;100351.09;4489743;31;34744;-82
2022/04/12 01:20:56;;;;;;;4.30;1.80;;;;;;;5.46;54.30;100350.22;4490284;31;34540;-81
2022/04/12 01:23:34;;;;;;;5.20;1.85;;;;;;;5.47;54.03;100349.37;4493003;31;33577;-82
2022/04/12 01:26:02;;;;;;;2.60;2.15;;;;;;;5.42;54.13;100351.19;4478841;31;33028;-82
2022/04/12 01:28:29;;;;;;;4.45;2.15;;;;;;;5.51;53.74;100340.59;4493146;31;34025;-82
2022/04/12 01:30:57;;;;;;;2.92;2.10;;;;;;;5.43;53.81;100347.66;4477818;31;33406;-81
2022/04/12 01:33:25;;;;;;;3.22;1.77;;;;;;;5.39;53.91;100338.97;4480792;31;33649;-81
2022/04/12 01:35:52;;;;;;;3.12;2.15;;;;;;;5.31;54.23;100339.06;4476484;31;32275;-81
2022/04/12 01:38:20;;;;;;;4.18;2.50;;;;;;;5.10;55.10;100339.38;4472566;31;32048;-81
2022/04/12 01:40:48;;;;;;;6.80;2.17;;;;;;;5.04;55.39;100348.19;4468149;32;34097;-82
2022/04/12 01:43:16;;;;;;;3.97;1.67;;;;;;;4.83;56.47;100344.03;4476562;31;34009;-82
2022/04/12 01:45:43;;;;;;;5.55;1.90;;;;;;;5.10;55.61;100337.62;4481210;31;33593;-82
2022/04/12 01:48:11;;;;;;;14.85;1.92;;;;;;;4.99;55.55;100346.50;4491056;31;33986;-82
2022/04/12 01:50:39;;;;;;;4.53;2.45;;;;;;;5.08;55.21;100352.50;4460454;31;33053;-82
2022/04/12 01:53:06;;;;;;;2.97;1.90;;;;;;;5.13;54.76;100350.69;4465977;31;32926;-82
2022/04/12 01:55:34;;;;;;;8.65;2.10;;;;;;;5.15;54.77;100345.41;4479306;31;33049;-82
2022/04/12 01:58:01;;;;;;;4.85;2.50;;;;;;;5.20;54.54;100350.59;4464899;31;32981;-82
2022/04/12 02:00:29;;;;;;;2.45;2.00;;;;;;;4.95;54.88;100352.66;4477237;31;34704;-82
2022/04/12 02:02:57;;;;;;;3.22;2.00;;;;;;;4.98;55.05;100349.97;4492329;31;34199;-83
2022/04/12 02:05:25;;;;;;;4.25;2.05;;;;;;;4.97;55.04;100356.97;4478352;31;34324;-82
2022/04/12 02:07:52;;;;;;;4.30;2.12;;;;;;;5.03;54.66;100353.41;4469491;31;33080;-82
2022/04/12 02:10:22;;;;;;;3.25;2.03;;;;;;;5.03;54.55;100348.19;4492663;31;33784;-83
2022/04/12 02:12:49;;;;;;;2.30;1.75;;;;;;;4.73;55.49;100349.41;4466455;31;32961;-82
2022/04/12 02:15:17;;;;;;;3.33;2.05;;;;;;;4.77;55.74;100351.97;4478171;31;32593;-82
2022/04/12 02:17:45;;;;;;;2.53;1.73;;;;;;;4.66;56.10;100343.41;4481210;31;33124;-81
2022/04/12 02:20:12;;;;;;;6.12;2.55;;;;;;;4.64;56.29;100345.13;4478942;31;32673;-82
2022/04/12 02:22:40;;;;;;;4.10;1.77;;;;;;;4.80;55.77;100336.25;4491826;31;34240;-81
2022/04/12 02:25:08;;;;;;;2.75;1.98;;;;;;;4.74;55.81;100345.91;4478311;31;33951;-82
2022/04/12 02:27:35;;;;;;;3.50;2.05;;;;;;;4.75;55.65;100348.53;4491895;31;33702;-82
2022/04/12 02:30:05;;;;;;;3.08;1.90;;;;;;;4.64;55.98;100345.13;4464039;31;34375;-82
2022/04/12 02:32:33;;;;;;;2.60;2.00;;;;;;;4.69;55.97;100343.34;4477949;31;33510;-82
2022/04/12 02:35:00;;;;;;;3.75;2.08;;;;;;;4.67;55.72;100339.88;4489483;31;34600;-82
2022/04/12 02:37:28;;;;;;;3.03;2.10;;;;;;;4.70;55.57;100344.19;4478993;31;32914;-82
2022/04/12 02:39:56;;;;;;;2.53;1.65;;;;;;;4.76;55.48;100344.16;4465000;31;33307;-82
2022/04/12 02:42:23;;;;;;;4.72;1.75;;;;;;;4.65;55.63;100346.00;4492366;31;33177;-82
2022/04/12 02:44:51;;;;;;;3.87;2.20;;;;;;;4.70;55.53;100349.44;4476222;31;33784;-82
2022/04/12 02:47:19;;;;;;;3.65;2.17;;;;;;;4.29;57.55;100349.00;4481428;31;33922;-81
2022/04/12 02:49:46;;;;;;;3.47;2.25;;;;;;;4.05;58.82;100357.06;4477207;31;34197;-82
2022/04/12 02:52:14;;;;;;;3.08;2.25;;;;;;;4.32;57.86;100354.19;4490431;31;33550;-81
2022/04/12 02:54:41;;;;;;;2.70;2.00;;;;;;;4.34;57.42;100355.03;4465774;31;32815;-82
2022/04/12 02:57:09;;;;;;;6.25;2.37;;;;;;;4.51;56.65;100352.28;4478883;31;33211;-81
2022/04/12 02:59:36;;;;;;;4.18;1.98;;;;;;;4.48;56.44;100359.28;4476912;31;34314;-81
2022/04/12 03:02:04;;;;;;;4.25;2.03;;;;;;;4.51;56.15;100354.88;4477308;31;32765;-81
2022/04/12 03:04:32;;;;;;;4.18;2.60;;;;;;;4.55;55.87;100360.94;4479061;31;33129;-81
2022/04/12 03:06:59;;;;;;;3.25;2.17;;;;;;;4.48;55.98;100361.88;4476390;31;33221;-81
2022/04/12 03:09:28;;;;;;;5.10;2.03;;;;;;;4.32;56.59;100356.81;4479491;31;33139;-81
2022/04/12 03:11:56;;;;;;;6.72;2.40;;;;;;;4.33;56.64;100358.53;4469000;31;33406;-81
2022/04/12 03:14:23;;;;;;;4.53;2.12;;;;;;;4.51;56.18;100364.44;4490503;31;34481;-81
2022/04/12 03:16:51;;;;;;;2.67;1.92;;;;;;;4.48;56.15;100364.50;4478352;31;33734;-82
2022/04/12 03:19:19;;;;;;;3.78;2.58;;;;;;;4.49;56.01;100355.78;4489584;31;34349;-83
2022/04/12 03:21:46;;;;;;;4.32;2.78;;;;;;;4.55;55.70;100360.94;4480796;31;32604;-82
2022/04/12 03:24:14;;;;;;;6.93;2.97;;;;;;;4.09;57.73;100361.38;4492680;31;34308;-82
2022/04/12 03:26:41;;;;;;;5.70;2.30;;;;;;;4.04;58.27;100357.94;4479138;31;33552;-81
2022/04/12 03:29:09;;;;;;;3.33;2.33;;;;;;;4.06;57.42;100361.38;4493370;31;34761;-82
2022/04/12 03:31:37;;;;;;;5.80;2.40;;;;;;;4.17;56.97;100356.06;4487713;31;33295;-81
2022/04/12 03:34:05;;;;;;;4.87;2.05;;;;;;;4.20;57.01;100359.53;4477284;31;33783;-82
2022/04/12 03:36:32;;;;;;;4.43;2.08;;;;;;;4.15;57.30;100363.94;4477413;31;33706;-81
2022/04/12 03:39:01;;;;;;;4.68;2.17;;;;;;;4.31;56.68;100362.91;4478253;31;34473;-81
2022/04/12 03:41:28;;;;;;;4.20;2.45;;;;;;;4.12;56.98;100370.03;4478171;31;33212;-81
2022/04/12 03:43:56;;;;;;;4.30;2.45;;;;;;;4.13;56.94;100373.53;4479676;31;33397;-81
2022/04/12 03:46:24;;;;;;;4.40;2.72;;;;;;;4.22;56.70;100369.97;4478084;31;33237;-81
2022/04/12 03:48:52;;;;;;;5.32;2.37;;;;;;;4.25;56.68;100380.41;4476889;31;33374;-81
2022/04/12 03:51:19;;;;;;;3.75;2.55;;;;;;;4.29;56.40;100377.75;4478041;31;33935;-81
2022/04/12 03:53:47;;;;;;;3.95;2.37;;;;;;;4.09;56.63;100377.91;4492155;31;34352;-81
2022/04/12 03:56:15;;;;;;;3.75;2.17;;;;;;;3.86;57.51;100379.84;4491007;31;33912;-81
2022/04/12 03:58:43;;;;;;;2.95;2.17;;;;;;;4.08;57.00;100381.41;4477732;31;33527;-82
2022/04/12 04:01:11;;;;;;;3.97;2.45;;;;;;;4.13;56.77;100373.53;4477737;31;32883;-81
2022/04/12 04:03:39;;;;;;;5.60;2.45;;;;;;;4.21;56.46;100379.56;4494791;31;33527;-81
2022/04/12 04:06:07;;;;;;;4.78;3.03;;;;;;;4.11;56.71;100378.75;4481159;31;33827;-81
2022/04/12 04:08:35;;;;;;;4.70;2.47;;;;;;;4.03;57.36;100384.91;4489570;31;34189;-81
2022/04/12 04:11:03;;;;;;;4.53;2.40;;;;;;;4.14;56.81;100383.09;4478812;31;33596;-81
2022/04/12 04:13:36;;;;;;;3.03;1.98;;;;;;;4.28;56.18;100381.25;4489441;31;32787;-81
2022/04/12 04:16:05;;;;;;;6.62;2.45;;;;;;;4.18;56.33;100387.44;4490706;31;33583;-81
2022/04/12 04:18:34;;;;;;;3.87;2.20;;;;;;;4.33;55.99;100383.81;4476664;31;34435;-81
2022/04/12 04:21:03;;;;;;;7.75;2.15;;;;;;;4.30;55.94;100381.22;4489503;31;33178;-82
2022/04/12 04:23:31;;;;;;;3.22;2.00;;;;;;;4.12;56.30;100379.63;4471965;31;33676;-81
2022/04/12 04:25:58;;;;;;;3.33;2.15;;;;;;;4.21;56.11;100379.56;4475957;31;34832;-81
2022/04/12 04:28:29;;;;;;;3.08;1.85;;;;;;;4.16;56.30;100383.94;4476978;31;34309;-81
2022/04/12 04:30:57;;;;;;;6.28;2.67;;;;;;;3.92;57.01;100389.37;4480213;31;32466;-82
2022/04/12 04:33:25;;;;;;;3.10;2.25;;;;;;;4.16;56.53;100381.34;4478529;31;32735;-81
2022/04/12 04:35:53;;;;;;;8.65;2.70;;;;;;;4.07;56.62;100389.25;4477884;31;34458;-82
2022/04/12 04:38:21;;;;;;;8.50;3.30;;;;;;;4.12;56.31;100387.47;4477091;31;33833;-82
2022/04/12 04:40:49;;;;;;;4.97;2.72;;;;;;;4.18;56.18;100395.28;4476281;31;33660;-81
2022/04/12 04:43:16;;;;;;;5.75;2.53;;;;;;;4.26;55.95;100385.59;4461949;31;32528;-81
2022/04/12 04:45:44;;;;;;;4.28;2.80;;;;;;;4.34;55.58;100391.62;4476058;31;33372;-82
2022/04/12 04:48:12;;;;;;;5.57;3.03;;;;;;;4.37;55.26;100390.75;4462844;31;32963;-82
2022/04/12 04:50:39;;;;;;;5.15;2.67;;;;;;;4.43;55.01;100389.84;4476201;31;32241;-82
2022/04/12 04:53:10;;;;;;;6.65;3.08;;;;;;;4.31;55.58;100399.50;4491911;31;33828;-81
2022/04/12 04:55:42;;;;;;;7.53;3.58;;;;;;;4.45;55.41;100395.91;4476358;31;33972;-81
2022/04/12 04:58:10;;;;;;;8.23;4.07;;;;;;;4.55;55.28;100405.38;4477313;31;33906;-81
2022/04/12 05:00:38;;;;;;;9.70;3.62;;;;;;;4.61;55.38;100400.13;4486739;31;32834;-81
2022/04/12 05:03:06;;;;;;;9.57;5.80;;;;;;;4.57;55.66;100403.66;4476458;31;34488;-82
2022/04/12 05:05:34;;;;;;;12.55;5.05;;;;;;;4.60;57.05;100414.06;4489598;31;33968;-82
2022/04/12 05:08:02;;;;;;;9.65;4.93;;;;;;;4.98;55.96;100407.56;4476834;31;33801;-82
2022/04/12 05:10:32;;;;;;;9.80;4.95;;;;;;;5.11;55.86;100414.41;4475969;31;32304;-82
2022/04/12 05:13:01;;;;;;;10.20;5.28;;;;;;;5.09;56.09;100416.19;4488801;31;33560;-82
2022/04/12 05:15:32;;;;;;;14.02;5.35;;;;;;;5.20;55.88;100416.91;4485896;31;33753;-81
2022/04/12 05:18:03;;;;;;;11.85;5.87;;;;;;;5.53;55.12;100417.38;4475194;31;33357;-81
2022/04/12 05:20:31;;;;;;;10.38;4.50;;;;;;;5.39;55.19;100418.41;4477052;31;33422;-81
2022/04/12 05:22:59;;;;;;;9.85;4.55;;;;;;;5.35;55.20;100416.72;4459311;31;32869;-81
2022/04/12 05:25:27;;;;;;;8.50;4.25;;;;;;;5.16;55.00;100417.81;4477059;31;34407;-81
2022/04/12 05:27:55;;;;;;;11.80;4.80;;;;;;;5.84;54.22;100418.69;4488797;31;33338;-81
2022/04/12 05:30:22;;;;;;;10.18;5.12;;;;;;;5.91;53.90;100422.06;4483188;31;33454;-81
2022/04/12 05:32:50;;;;;;;7.18;3.62;;;;;;;5.83;54.34;100427.41;4455474;31;32888;-83
2022/04/12 05:35:18;;;;;;;9.77;3.92;;;;;;;6.10;53.58;100426.19;4487150;31;34729;-83
2022/04/12 05:37:48;;;;;;;8.43;3.55;;;;;;;6.31;53.23;100430.22;4488758;31;32677;-83
2022/04/12 05:40:18;;;;;;;8.15;3.50;;;;;;;6.49;53.01;100423.81;4475943;31;32288;-83
2022/04/12 05:42:46;;;;;;;6.62;2.92;;;;;;;6.48;53.17;100427.31;4490938;31;33471;-83
2022/04/12 05:45:14;;;;;;;9.95;3.87;;;;;;;6.70;51.63;100432.22;4488803;31;34669;-82
2022/04/12 05:47:53;;;;;;;8.18;2.78;;;;;;;6.78;51.37;100431.16;4490429;31;34032;-83
2022/04/12 05:50:22;;;;;;;9.50;3.47;;;;;;;6.81;51.93;100430.25;4475919;31;33905;-83
2022/04/12 05:52:50;;;;;;;11.98;4.45;;;;;;;7.08;52.17;100427.09;4463766;31;35054;-83
2022/04/12 05:55:21;;;;;;;16.62;5.50;;;;;;;6.97;51.02;100430.81;4475028;32;33920;-83
2022/04/12 05:57:52;;;;;;;11.65;5.07;;;;;;;7.06;50.33;100430.66;4468392;32;34073;-83
2022/04/12 06:00:31;;;;;;;14.10;6.40;;;;;;;7.54;50.12;100427.91;4476993;31;94886;-91
2022/04/12 06:03:22;;;;;;;12.57;5.22;;;;;;;7.41;50.25;100433.44;4389385;32;33577;-92
2022/04/12 06:06:01;;;;;;;13.68;5.53;;;;;;;7.85;49.66;100430.75;4358080;32;33712;-92
2022/04/12 06:08:52;;;;;;;11.57;5.10;;;;;;;8.22;49.81;100430.78;4366560;32;33259;-92
2022/04/12 06:11:31;;;;;;;13.45;7.12;;;;;;;8.50;48.04;100423.09;4395754;32;32507;-92
2022/04/12 06:14:22;;;;;;;9.65;5.20;;;;;;;8.31;48.88;100433.19;4348792;32;34151;-92
2022/04/12 06:17:01;;;;;;;15.05;6.03;;;;;;;8.52;48.78;100431.81;4379044;32;33517;-92
2022/04/12 06:19:52;;;;;;;10.70;4.95;;;;;;;8.79;46.46;100434.66;4338460;33;33753;-91
2022/04/12 06:22:20;;;;;;;7.60;4.75;;;;;;;8.86;45.85;100437.06;4306234;33;32644;-90
2022/04/12 06:25:14;;;;;;;9.77;4.60;;;;;;;9.24;44.62;100437.78;4375061;32;33098;-93
2022/04/12 06:27:53;;;;;;;8.27;4.50;;;;;;;9.54;44.74;100435.19;4370670;32;33806;-92
2022/04/12 06:30:47;;;;;;;10.37;4.53;;;;;;;9.57;45.03;100437.75;4370346;32;32785;-91
2022/04/12 06:33:36;;;;;;;13.68;5.00;;;;;;;9.77;43.30;100445.03;4376288;32;33496;-83
2022/04/12 06:36:04;;;;;;;10.70;4.55;;;;;;;9.82;42.66;100441.34;4391778;32;33602;-83
2022/04/12 06:38:32;;;;;;;6.00;3.58;;;;;;;9.67;42.70;100441.81;4393311;32;34391;-83
2022/04/12 06:41:00;;;;;;;8.48;4.87;;;;;;;10.15;42.94;100439.44;4392575;32;33753;-83
2022/04/12 06:43:27;;;;;;;6.22;3.70;;;;;;;10.11;41.78;100443.13;4407484;32;33268;-83
2022/04/12 06:45:55;;;;;;;10.65;4.00;;;;;;;10.14;40.09;100436.87;4390721;32;33481;-82
2022/04/12 06:48:23;;;;;;;9.57;4.43;;;;;;;10.48;39.79;100432.25;4393569;32;33558;-83
2022/04/12 06:50:52;;;;;;;9.18;4.00;;;;;;;10.31;40.81;100446.94;4380730;32;32998;-83
2022/04/12 06:53:21;;;;;;;6.22;3.40;;;;;;;10.57;39.45;100440.78;4392715;32;33212;-83
2022/04/12 06:55:49;;;;;;;5.12;3.40;;;;;;;10.92;39.16;100445.75;4390630;32;32837;-82
2022/04/12 06:58:17;;;;;;;8.50;3.60;;;;;;;10.15;38.63;100443.87;4392843;32;33623;-82
2022/04/12 07:00:44;;;;;;;4.60;3.00;;;;;;;10.47;38.22;100434.94;4391818;32;34346;-83
2022/04/12 07:03:12;;;;;;;7.57;3.25;;;;;;;10.96;36.75;100434.13;4393288;32;32143;-83
2022/04/12 07:05:40;;;;;;;5.72;3.70;;;;;;;10.96;37.74;100439.41;4392682;32;33948;-83
2022/04/12 07:08:07;;;;;;;5.65;3.33;;;;;;;11.30;37.99;100432.94;4380843;32;33197;-83
2022/04/12 07:10:35;;;;;;;5.78;3.62;;;;;;;11.57;37.50;100435.47;4406223;32;34868;-83
2022/04/12 07:13:03;;;;;;;7.82;3.03;;;;;;;11.58;38.11;100431.88;4393487;32;31700;-83
2022/04/12 07:15:30;;;;;;;6.55;3.83;;;;;;;11.51;37.47;100437.41;4382661;32;34038;-83
2022/04/12 07:17:59;;;;;;;5.43;3.22;;;;;;;11.31;36.69;100439.09;4393438;32;33555;-83
2022/04/12 07:20:27;;;;;;;8.90;4.07;;;;;;;11.71;36.34;100435.81;4394180;32;34880;-83
2022/04/12 07:22:54;;;;;;;5.60;3.28;;;;;;;11.34;37.03;100438.94;4380942;32;32836;-83
2022/04/12 07:25:22;;;;;;;6.53;3.87;;;;;;;11.82;37.53;100436.31;4380190;32;33241;-83
2022/04/12 07:27:49;;;;;;;5.72;3.97;;;;;;;12.02;39.36;100449.63;4393411;32;34372;-83
2022/04/12 07:30:17;;;;;;;10.00;4.68;;;;;;;11.44;37.62;100446.50;4380588;32;33236;-83
2022/04/12 07:33:05;;;;;;;6.32;4.20;;;;;;;11.86;37.25;100440.53;4394243;32;32160;-84
2022/04/12 07:35:32;;;;;;;7.43;3.97;;;;;;;12.33;36.95;100442.22;4393475;32;33705;-83
2022/04/12 07:38:00;;;;;;;6.82;3.75;;;;;;;12.05;36.16;100438.88;4392467;32;32238;-83
2022/04/12 07:40:28;;;;;;;8.90;3.92;;;;;;;11.74;36.80;100439.19;4393117;32;33771;-82
2022/04/12 07:42:56;;;;;;;7.47;4.87;;;;;;;12.03;35.39;100438.09;4395086;32;33743;-83
2022/04/12 07:45:23;;;;;;;14.02;4.43;;;;;;;11.80;35.88;100449.53;4392662;32;32943;-83
2022/04/12 07:47:51;;;;;;;13.02;4.60;;;;;;;12.62;36.31;100435.72;4406905;32;33713;-83
2022/04/12 07:50:24;;;;;;;8.25;4.40;;;;;;;12.56;35.48;100437.69;4392877;32;33212;-84
2022/04/12 07:52:52;;;;;;;10.00;4.82;;;;;;;12.71;35.47;100451.22;4403415;32;33463;-83
2022/04/12 07:55:20;;;;;;;13.30;4.97;;;;;;;12.88;35.43;100446.09;4392117;32;32516;-83
2022/04/12 07:57:47;;;;;;;7.95;4.68;;;;;;;13.13;33.40;100450.31;4380308;32;34299;-83
2022/04/12 08:00:15;;;;;;;8.40;4.50;;;;;;;12.99;36.29;100451.78;4392174;32;34067;-83
2022/04/12 08:02:43;;;;;;;8.57;4.22;;;;;;;12.90;35.21;100449.50;4379987;32;33836;-83
2022/04/12 08:05:10;;;;;;;7.00;4.07;;;;;;;12.90;34.02;100449.50;4393291;32;33107;-82
2022/04/12 08:07:39;;;;;;;10.52;4.97;;;;;;;13.03;33.32;100448.06;4393266;32;33380;-84
2022/04/12 08:10:08;;;;;;;7.22;3.60;;;;;;;13.11;35.19;100450.41;4396964;32;33897;-82
2022/04/12 08:12:36;;;;;;;9.20;4.62;;;;;;;12.96;34.70;100448.38;4394247;32;34383;-82
2022/04/12 08:15:05;;;;;;;6.87;3.53;;;;;;;13.12;32.95;100460.06;4385128;32;32539;-83
2022/04/12 08:17:33;;;;;;;9.05;4.45;;;;;;;13.40;33.20;100453.59;4404935;32;33675;-83
2022/04/12 08:20:00;;;;;;;6.40;3.78;;;;;;;13.23;32.65;100454.31;4392491;32;33385;-83
2022/04/12 08:22:28;;;;;;;16.92;5.05;;;;;;;13.95;32.35;100456.31;4391985;32;34400;-83
2022/04/12 08:25:15;;;;;;;8.00;4.55;;;;;;;13.63;32.86;100460.50;4396303;32;33924;-82
2022/04/12 08:27:44;;;;;;;8.95;4.75;;;;;;;13.45;33.40;100463.03;4393811;32;33105;-81
2022/04/12 08:30:12;;;;;;;8.75;4.32;;;;;;;13.63;33.24;100460.50;4389732;32;34152;-81
2022/04/12 08:32:40;;;;;;;10.02;4.50;;;;;;;13.99;31.71;100463.22;4405326;32;33327;-81
2022/04/12 08:35:09;;;;;;;8.00;4.07;;;;;;;13.86;32.34;100457.63;4381118;32;33406;-81
2022/04/12 08:37:36;;;;;;;10.35;4.18;;;;;;;14.36;31.44;100454.34;4393066;32;34181;-81
2022/04/12 08:40:05;;;;;;;6.30;4.57;;;;;;;14.57;33.64;100458.66;4367708;32;33216;-81
2022/04/12 08:42:32;;;;;;;5.62;3.83;;;;;;;14.80;30.73;100451.31;4404473;32;37279;-81
2022/04/12 08:45:01;;;;;;;6.68;4.22;;;;;;;14.81;30.80;100459.22;4391955;32;33067;-82
2022/04/12 08:47:32;;;;;;;6.45;4.30;;;;;;;15.08;31.68;100450.75;4391445;32;33653;-81
2022/04/12 08:50:01;;;;;;;10.23;4.32;;;;;;;14.88;30.42;100458.91;4392018;32;33233;-81
2022/04/12 08:52:28;;;;;;;6.15;3.83;;;;;;;15.18;30.90;100457.31;4382469;32;32380;-82
2022/04/12 08:54:56;;;;;;;8.40;3.62;;;;;;;15.43;29.38;100446.25;4404607;32;33644;-81
2022/04/12 08:57:24;;;;;;;8.82;3.62;;;;;;;15.64;29.91;100454.03;4385070;32;32945;-83
2022/04/12 08:59:51;;;;;;;5.85;3.22;;;;;;;15.46;30.06;100446.06;4391935;32;34007;-82
2022/04/12 09:02:19;;;;;;;5.28;3.03;;;;;;;15.21;31.10;100456.28;4391589;32;33381;-82
2022/04/12 09:04:47;;;;;;;8.20;3.20;;;;;;;15.59;30.71;100447.13;4380215;32;33161;-82
2022/04/12 09:07:14;;;;;;;7.30;3.25;;;;;;;15.47;29.01;100439.78;4379357;32;33864;-82
2022/04/12 09:09:43;;;;;;;5.97;3.28;;;;;;;15.83;28.92;100438.78;4404740;32;32371;-82
2022/04/12 09:12:13;;;;;;;5.30;2.80;;;;;;;15.94;29.91;100439.03;4393917;32;33535;-82
2022/04/12 09:14:42;;;;;;;4.05;2.72;;;;;;;16.15;27.85;100439.66;4391917;32;33798;-83
2022/04/12 09:17:12;;;;;;;9.10;3.60;;;;;;;16.28;26.54;100437.13;4379344;32;33203;-82
2022/04/12 09:19:48;;;;;;;3.97;2.65;;;;;;;16.78;27.36;100426.22;4392831;32;33292;-82
2022/04/12 09:22:19;;;;;;;4.45;3.10;;;;;;;16.87;26.73;100431.00;4406437;32;34667;-81
2022/04/12 09:24:52;;;;;;;7.07;3.03;;;;;;;16.99;27.09;100421.41;4391147;32;32344;-81
2022/04/12 09:27:22;;;;;;;4.35;3.03;;;;;;;17.25;24.53;100418.97;4392163;32;33466;-79
2022/04/12 09:29:51;;;;;;;7.47;3.53;;;;;;;16.68;27.48;100416.16;4393241;32;33685;-80
2022/04/12 09:32:25;;;;;;;3.97;2.97;;;;;;;16.10;27.15;100429.25;4394020;32;33250;-80
2022/04/12 09:34:54;;;;;;;5.40;3.75;;;;;;;15.78;27.04;100419.53;4392613;32;33218;-82
2022/04/12 09:37:26;;;;;;;6.75;3.40;;;;;;;15.54;27.78;100422.56;4394128;32;33086;-83
2022/04/12 09:40:03;;;;;;;7.22;4.22;;;;;;;15.79;30.15;100421.25;4392126;32;34154;-83
2022/04/12 09:42:38;;;;;;;5.40;3.60;;;;;;;16.28;29.95;100418.47;4393513;32;32464;-83
2022/04/12 09:45:08;;;;;;;8.23;3.60;;;;;;;16.67;31.80;100414.44;4389463;32;34499;-83
2022/04/12 09:47:36;;;;;;;7.25;3.47;;;;;;;16.63;28.54;100408.44;4381288;32;30722;-82
2022/04/12 09:50:26;;;;;;;4.35;3.25;;;;;;;16.99;28.32;100400.06;4393259;32;32702;-83
2022/04/12 09:52:58;;;;;;;7.37;4.05;;;;;;;17.00;27.71;100401.78;4393631;32;32772;-82
2022/04/12 09:55:37;;;;;;;5.40;4.07;;;;;;;17.20;26.14;100395.22;4394055;32;32199;-83
2022/04/12 09:58:13;;;;;;;8.30;2.92;;;;;;;17.13;30.37;100392.06;4382492;32;34711;-83
2022/04/12 10:00:42;;;;;;;5.65;3.87;;;;;;;17.36;29.14;100397.81;4368716;32;33231;-82
2022/04/12 10:03:12;;;;;;;7.43;3.70;;;;;;;17.64;26.74;100392.44;4393826;32;32390;-82
2022/04/12 10:05:42;;;;;;;6.20;3.60;;;;;;;17.86;25.70;100388.44;4394274;32;33452;-82
2022/04/12 10:08:11;;;;;;;8.85;3.70;;;;;;;18.06;25.08;100390.66;4395173;32;34021;-83
2022/04/12 10:10:43;;;;;;;7.00;4.05;;;;;;;17.69;26.05;100388.63;4393905;32;32903;-82
2022/04/12 10:13:13;;;;;;;7.70;4.07;;;;;;;17.90;25.29;100377.47;4393678;32;32905;-82
2022/04/12 10:15:41;;;;;;;9.23;4.45;;;;;;;17.29;30.52;100384.00;4368930;32;34593;-82
2022/04/12 10:18:12;;;;;;;5.60;3.42;;;;;;;18.00;25.08;100371.50;4393282;32;33422;-81
2022/04/12 10:20:40;;;;;;;5.70;3.78;;;;;;;18.25;26.05;100365.41;4392392;32;32994;-82
2022/04/12 10:23:19;;;;;;;9.63;4.00;;;;;;;17.63;26.71;100374.72;4391661;32;32724;-82
2022/04/12 10:25:50;;;;;;;9.32;4.62;;;;;;;18.22;24.91;100370.94;4393891;32;33517;-81
2022/04/12 10:28:18;;;;;;;5.10;3.60;;;;;;;17.66;25.94;100371.00;4393633;32;33418;-82
2022/04/12 10:30:46;;;;;;;9.60;3.70;;;;;;;17.42;30.04;100368.03;4393461;32;33920;-82
2022/04/12 10:33:19;;;;;;;9.57;3.47;;;;;;;17.59;28.63;100370.50;4380690;32;32657;-82
2022/04/12 10:35:47;;;;;;;5.95;3.42;;;;;;;18.35;26.54;100355.81;4376603;32;33181;-81
2022/04/12 10:38:16;;;;;;;5.35;3.62;;;;;;;17.88;26.62;100357.97;4404398;32;33587;-82
2022/04/12 10:40:48;;;;;;;5.07;3.30;;;;;;;17.85;25.40;100359.97;4381520;32;34804;-82
2022/04/12 10:43:29;;;;;;;6.55;3.65;;;;;;;18.60;24.59;100350.50;4406278;32;33323;-81
2022/04/12 10:45:57;;;;;;;7.47;3.62;;;;;;;18.22;24.79;100346.88;4394170;32;33529;-81
2022/04/12 10:48:28;;;;;;;4.90;3.30;;;;;;;18.03;26.71;100356.13;4380222;32;33201;-81
2022/04/12 10:50:58;;;;;;;5.65;3.92;;;;;;;17.81;27.55;100353.16;4389600;32;33906;-81
2022/04/12 10:53:35;;;;;;;5.15;3.22;;;;;;;18.10;26.00;100345.91;4387033;32;33059;-81
2022/04/12 10:56:04;;;;;;;8.15;3.40;;;;;;;18.47;29.12;100346.09;4404367;32;34632;-81
2022/04/12 10:58:35;;;;;;;5.78;3.50;;;;;;;18.21;25.24;100338.00;4403514;32;33941;-81
2022/04/12 11:01:04;;;;;;;6.00;3.37;;;;;;;18.83;26.50;100340.06;4387089;32;33880;-81
2022/04/12 11:03:41;;;;;;;5.62;3.47;;;;;;;18.64;28.10;100327.94;4400866;32;33561;-81
2022/04/12 11:06:32;;;;;;;6.70;3.67;;;;;;;18.89;27.76;100324.44;4405197;32;34393;-81
2022/04/12 11:09:00;;;;;;;6.32;3.40;;;;;;;19.30;23.21;100322.50;4393023;32;33706;-81
2022/04/12 11:11:38;;;;;;;6.03;3.28;;;;;;;19.08;25.69;100328.50;4405042;32;34081;-81
2022/04/12 11:14:27;;;;;;;4.70;3.20;;;;;;;18.90;28.33;100330.66;4393658;32;32744;-81
2022/04/12 11:16:58;;;;;;;6.87;4.47;;;;;;;18.56;26.43;100327.63;4380925;32;34192;-81
2022/04/12 11:19:26;;;;;;;3.90;3.17;;;;;;;19.01;23.97;100321.87;4393651;32;33676;-81
2022/04/12 11:21:59;;;;;;;6.85;3.92;;;;;;;19.12;26.74;100314.78;4393529;32;33735;-81
2022/04/12 11:24:27;;;;;;;6.57;3.28;;;;;;;19.34;24.98;100302.56;4393318;32;33545;-78
2022/04/12 11:27:14;;;;;;;6.32;3.90;;;;;;;19.10;25.74;100298.00;4380312;32;33244;-81
2022/04/12 11:29:42;;;;;;;7.45;3.30;;;;;;;19.57;24.20;100301.75;4391959;32;33096;-81
2022/04/12 11:32:11;;;;;;;5.50;3.40;;;;;;;19.52;24.03;100298.56;4392044;32;33836;-81
2022/04/12 11:34:39;;;;;;;6.55;3.65;;;;;;;19.42;25.89;100294.84;4380444;32;32889;-82
2022/04/12 11:37:09;;;;;;;8.15;4.57;;;;;;;19.14;24.06;100290.63;4391831;32;33374;-83
2022/04/12 11:39:40;;;;;;;5.10;3.62;;;;;;;19.29;24.75;100299.38;4380562;32;34652;-82
2022/04/12 11:42:10;;;;;;;5.97;3.78;;;;;;;18.91;26.00;100294.91;4392907;32;33991;-83